createdAt,value
2022-12-23T00:01:04.773Z,20.88
2022-12-23T00:03:35.257Z,21.67
2022-12-23T00:06:07.718Z,21.77
2022-12-23T00:08:35.132Z,21.00
2022-12-23T00:11:02.033Z,22.42
2022-12-23T00:13:47.389Z,21.92
2022-12-23T00:16:15.335Z,22.85
2022-12-23T00:18:42.965Z,22.95
2022-12-23T00:21:13.019Z,21.70
2022-12-23T00:23:42.811Z,21.65
2022-12-23T00:26:16.242Z,21.45
2022-12-23T00:28:43.324Z,21.20
2022-12-23T00:31:11.324Z,21.20
2022-12-23T00:33:41.607Z,23.33
2022-12-23T00:36:29.333Z,21.25
2022-12-23T00:39:16.854Z,21.92
2022-12-23T00:42:02.455Z,22.55
2022-12-23T00:44:29.402Z,21.45
2022-12-23T00:46:56.409Z,22.17
2022-12-23T00:49:41.770Z,21.30
2022-12-23T00:52:11.421Z,22.65
2022-12-23T00:54:38.433Z,22.80
2022-12-23T00:57:05.943Z,23.08
2022-12-23T00:59:33.945Z,22.20
2022-12-23T01:02:19.904Z,23.38
2022-12-23T01:05:05.484Z,23.00
2022-12-23T01:07:32.407Z,24.17
2022-12-23T01:09:59.312Z,20.65
2022-12-23T01:12:26.256Z,24.13
2022-12-23T01:14:53.104Z,24.60
2022-12-23T01:17:20.051Z,25.30
2022-12-23T01:19:46.965Z,25.73
2022-12-23T01:22:13.887Z,25.63
2022-12-23T01:24:40.928Z,25.98
2022-12-23T01:27:07.854Z,28.20
2022-12-23T01:29:34.711Z,25.75
2022-12-23T01:32:01.747Z,26.50
2022-12-23T01:34:36.098Z,27.30
2022-12-23T01:37:03.674Z,26.67
2022-12-23T01:39:30.567Z,27.55
2022-12-23T01:42:15.787Z,27.30
2022-12-23T01:45:02.169Z,26.50
2022-12-23T01:47:40.414Z,26.92
2022-12-23T01:50:38.713Z,25.48
2022-12-23T01:53:17.173Z,28.73
2022-12-23T01:55:59.279Z,28.27
2022-12-23T01:58:54.615Z,29.10
2022-12-23T02:01:40.612Z,28.65
2022-12-23T02:04:18.834Z,28.88
2022-12-23T02:07:07.251Z,28.65
2022-12-23T02:09:39.096Z,28.67
2022-12-23T02:12:39.205Z,28.02
2022-12-23T02:15:36.611Z,28.95
2022-12-23T02:18:18.795Z,29.27
2022-12-23T02:20:57.535Z,29.42
2022-12-23T02:23:43.302Z,29.25
2022-12-23T02:26:21.827Z,30.15
2022-12-23T02:29:16.285Z,30.55
2022-12-23T02:31:48.757Z,31.13
2022-12-23T02:34:27.279Z,29.15
2022-12-23T02:37:23.730Z,28.98
2022-12-23T02:40:05.806Z,27.58
2022-12-23T02:43:00.727Z,28.23
2022-12-23T02:46:06.376Z,28.15
2022-12-23T02:48:47.160Z,21.88
2022-12-23T02:51:15.660Z,30.35
2022-12-23T02:53:51.555Z,29.98
2022-12-23T02:56:21.144Z,28.67
2022-12-23T02:59:19.115Z,30.77
2022-12-23T03:01:47.542Z,32.33
2022-12-23T03:04:15.196Z,32.33
2022-12-23T03:06:44.580Z,30.38
2022-12-23T03:09:22.843Z,32.53
2022-12-23T03:12:04.331Z,30.52
2022-12-23T03:15:06.826Z,28.70
2022-12-23T03:17:46.158Z,24.92
2022-12-23T03:20:27.302Z,31.30
2022-12-23T03:25:59.015Z,29.30
2022-12-23T03:28:41.084Z,29.67
2022-12-23T03:31:11.801Z,29.23
2022-12-23T03:33:43.693Z,30.48
2022-12-23T03:36:22.222Z,27.63
2022-12-23T03:38:52.104Z,26.17
2022-12-23T03:41:32.134Z,28.23
2022-12-23T03:44:22.660Z,26.27
2022-12-23T03:47:03.031Z,27.65
2022-12-23T03:49:37.342Z,28.70
2022-12-23T03:52:21.235Z,27.40
2022-12-23T03:55:00.451Z,30.73
2022-12-23T03:57:51.489Z,31.70
2022-12-23T04:00:18.522Z,31.73
2022-12-23T04:03:00.351Z,29.33
2022-12-23T04:05:40.031Z,30.17
2022-12-23T04:08:33.771Z,29.20
2022-12-23T04:11:02.166Z,28.90
2022-12-23T04:13:30.134Z,30.85
2022-12-23T04:16:01.772Z,29.40
2022-12-23T04:18:29.486Z,31.80
2022-12-23T04:20:56.419Z,29.23
2022-12-23T04:23:23.373Z,28.38
2022-12-23T04:25:50.272Z,29.23
2022-12-23T04:28:18.347Z,27.90
2022-12-23T04:30:45.214Z,27.13
2022-12-23T04:33:12.791Z,28.63
2022-12-23T04:35:39.713Z,28.70
2022-12-23T04:38:06.628Z,28.73
2022-12-23T04:40:33.541Z,29.77
2022-12-23T04:43:00.471Z,31.20
2022-12-23T04:45:27.322Z,30.05
2022-12-23T04:47:55.405Z,28.75
2022-12-23T04:50:22.323Z,29.67
2022-12-23T04:52:49.235Z,29.83
2022-12-23T04:55:16.214Z,30.05
2022-12-23T04:57:43.139Z,27.70
2022-12-23T05:00:10.791Z,30.20
2022-12-23T05:02:37.807Z,28.60
2022-12-23T05:05:05.097Z,30.98
2022-12-23T05:07:32.005Z,32.38
2022-12-23T05:10:02.071Z,31.95
2022-12-23T05:12:30.459Z,33.78
2022-12-23T05:14:57.368Z,33.72
2022-12-23T05:17:24.372Z,33.90
2022-12-23T05:19:51.327Z,35.38
2022-12-23T05:22:18.320Z,32.85
2022-12-23T05:24:45.252Z,33.95
2022-12-23T05:27:12.131Z,32.92
2022-12-23T05:29:39.097Z,32.70
2022-12-23T05:32:06.127Z,33.75
2022-12-23T05:34:33.079Z,32.38
2022-12-23T05:37:00.001Z,33.33
2022-12-23T05:39:26.902Z,33.30
2022-12-23T05:41:53.787Z,33.03
2022-12-23T05:44:20.662Z,31.30
2022-12-23T05:46:47.538Z,29.35
2022-12-23T05:49:14.468Z,30.90
2022-12-23T05:51:41.318Z,29.90
2022-12-23T05:54:08.209Z,29.85
2022-12-23T05:56:35.082Z,28.75
2022-12-23T05:59:03.751Z,31.83
2022-12-23T06:01:30.861Z,31.83
2022-12-23T06:03:57.894Z,31.35
2022-12-23T06:06:25.045Z,31.63
2022-12-23T06:08:57.516Z,31.92
2022-12-23T06:11:26.362Z,33.65
2022-12-23T06:13:53.267Z,33.30
2022-12-23T06:16:21.942Z,35.03
2022-12-23T06:18:48.882Z,34.13
2022-12-23T06:21:15.789Z,33.63
2022-12-23T06:23:42.651Z,36.35
2022-12-23T06:26:09.544Z,37.38
2022-12-23T06:28:36.398Z,43.50
2022-12-23T06:31:03.543Z,43.42
2022-12-23T06:33:30.547Z,47.75
2022-12-23T06:35:58.208Z,45.83
2022-12-23T06:38:27.569Z,43.35
2022-12-23T06:40:54.426Z,45.97
2022-12-23T06:43:21.474Z,49.50
2022-12-23T06:45:49.123Z,45.83
2022-12-23T06:48:16.870Z,44.90
2022-12-23T06:50:44.337Z,47.28
2022-12-23T06:53:11.275Z,43.40
2022-12-23T06:55:38.278Z,40.22
2022-12-23T06:58:06.026Z,41.78
2022-12-23T07:00:33.877Z,44.88
2022-12-23T07:03:00.924Z,44.13
2022-12-23T07:05:34.936Z,41.85
2022-12-23T07:08:03.796Z,41.45
2022-12-23T07:10:30.792Z,42.25
2022-12-23T07:12:57.676Z,44.63
2022-12-23T07:15:24.613Z,43.33
2022-12-23T07:17:51.901Z,46.53
2022-12-23T07:20:18.790Z,40.28
2022-12-23T07:22:46.300Z,43.08
2022-12-23T07:25:13.768Z,43.92
2022-12-23T07:27:40.707Z,46.17
2022-12-23T07:30:08.250Z,47.92
2022-12-23T07:32:35.120Z,43.90
2022-12-23T07:35:02.109Z,44.08
2022-12-23T07:37:28.988Z,43.50
2022-12-23T07:39:55.917Z,43.97
2022-12-23T07:42:44.157Z,48.85
2022-12-23T07:45:10.079Z,47.97
2022-12-23T07:47:36.956Z,48.33
2022-12-23T07:50:04.012Z,50.33
2022-12-23T07:52:30.958Z,50.65
2022-12-23T07:54:57.864Z,55.40
2022-12-23T07:57:24.756Z,49.22
2022-12-23T07:59:51.594Z,50.90
2022-12-23T08:02:18.549Z,51.20
2022-12-23T08:04:46.545Z,47.58
2022-12-23T08:07:13.645Z,45.13
2022-12-23T08:09:40.543Z,48.25
2022-12-23T08:12:07.586Z,43.83
2022-12-23T08:14:34.421Z,42.15
2022-12-23T08:17:01.362Z,39.05
2022-12-23T08:19:28.550Z,42.65
2022-12-23T08:21:55.426Z,41.70
2022-12-23T08:24:22.311Z,46.38
2022-12-23T08:26:49.235Z,44.90
2022-12-23T08:29:16.140Z,47.38
2022-12-23T08:31:43.089Z,37.22
2022-12-23T08:34:10.714Z,46.40
2022-12-23T08:36:37.682Z,46.67
2022-12-23T08:39:07.980Z,45.78
2022-12-23T08:41:42.811Z,47.95
2022-12-23T08:44:09.723Z,44.58
2022-12-23T08:46:37.214Z,43.17
2022-12-23T08:49:05.052Z,45.22
2022-12-23T08:51:35.067Z,44.83
2022-12-23T08:54:02.359Z,47.92
2022-12-23T08:56:32.438Z,43.10
2022-12-23T08:59:00.543Z,45.15
2022-12-23T09:01:30.034Z,48.35
2022-12-23T09:03:57.353Z,38.90
2022-12-23T09:06:30.443Z,43.03
2022-12-23T09:08:58.626Z,44.65
2022-12-23T09:11:27.249Z,41.60
2022-12-23T09:13:55.423Z,39.42
2022-12-23T09:16:22.759Z,36.15
2022-12-23T09:18:49.724Z,36.70
2022-12-23T09:21:19.022Z,41.05
2022-12-23T09:23:47.639Z,41.50
2022-12-23T09:26:19.812Z,40.95
2022-12-23T09:28:46.794Z,36.15
2022-12-23T09:31:14.307Z,35.45
2022-12-23T09:33:41.223Z,34.33
2022-12-23T09:36:08.385Z,34.97
2022-12-23T09:38:36.328Z,30.98
2022-12-23T09:41:12.539Z,31.98
2022-12-23T09:43:45.354Z,35.20
2022-12-23T09:46:25.637Z,37.75
2022-12-23T09:49:12.379Z,33.08
2022-12-23T09:51:39.300Z,37.35
2022-12-23T09:54:31.070Z,44.60
2022-12-23T09:57:11.291Z,30.35
2022-12-23T09:59:56.913Z,23.30
2022-12-23T10:02:45.424Z,31.30
2022-12-23T10:05:20.037Z,31.15
2022-12-23T10:07:51.983Z,31.35
2022-12-23T10:10:42.887Z,30.88
2022-12-23T10:13:35.625Z,31.25
2022-12-23T10:16:12.608Z,29.58
2022-12-23T10:18:39.430Z,27.65
2022-12-23T10:21:21.153Z,27.80
2022-12-23T10:23:52.702Z,27.02
2022-12-23T10:26:28.721Z,28.70
2022-12-23T10:29:08.175Z,24.77
2022-12-23T10:32:02.089Z,26.52
2022-12-23T10:34:45.448Z,26.33
2022-12-23T10:37:38.935Z,26.15
2022-12-23T10:40:17.341Z,25.77
2022-12-23T10:42:58.897Z,28.25
2022-12-23T10:45:47.476Z,24.77
2022-12-23T10:48:43.465Z,27.42
2022-12-23T10:51:43.170Z,26.83
2022-12-23T10:54:15.550Z,28.88
2022-12-23T10:56:43.838Z,32.97
2022-12-23T10:59:16.848Z,35.60
2022-12-23T11:01:50.836Z,30.00
2022-12-23T11:04:20.037Z,32.88
2022-12-23T11:07:10.590Z,39.35
2022-12-23T11:09:57.538Z,32.92
2022-12-23T11:12:42.528Z,30.80
2022-12-23T11:15:28.125Z,25.27
2022-12-23T11:18:04.285Z,24.75
2022-12-23T11:20:31.856Z,25.88
2022-12-23T11:23:02.331Z,24.88
2022-12-23T11:25:29.744Z,24.33
2022-12-23T11:28:19.650Z,28.67
2022-12-23T11:30:50.351Z,29.17
2022-12-23T11:33:32.681Z,27.23
2022-12-23T11:36:14.905Z,25.65
2022-12-23T11:38:59.020Z,22.60
2022-12-23T11:41:29.747Z,22.48
2022-12-23T11:44:25.790Z,22.55
2022-12-23T11:46:53.078Z,21.25
2022-12-23T11:49:31.983Z,23.15
2022-12-23T11:52:07.907Z,22.02
2022-12-23T11:54:35.056Z,21.10
2022-12-23T11:57:08.519Z,20.75
2022-12-23T11:59:42.231Z,20.00
2022-12-23T12:02:27.536Z,21.58
2022-12-23T12:05:26.607Z,20.13
2022-12-23T12:07:58.510Z,22.08
2022-12-23T12:10:35.333Z,19.50
2022-12-23T12:13:05.817Z,19.50
2022-12-23T12:16:20.224Z,17.17
2022-12-23T12:18:55.143Z,16.45
2022-12-23T12:21:28.791Z,17.50
2022-12-23T12:24:18.287Z,17.65
2022-12-23T12:26:51.424Z,16.53
2022-12-23T12:29:30.912Z,16.10
2022-12-23T12:32:00.036Z,17.35
2022-12-23T12:35:05.574Z,16.95
2022-12-23T12:37:44.973Z,16.50
2022-12-23T12:40:35.102Z,16.92
2022-12-23T12:43:31.040Z,17.95
2022-12-23T12:46:09.836Z,17.85
2022-12-23T12:48:51.079Z,17.10
2022-12-23T12:54:05.721Z,16.33
2022-12-23T12:57:04.138Z,18.65
2022-12-23T12:59:38.910Z,17.90
2022-12-23T13:02:15.134Z,18.27
2022-12-23T13:04:50.829Z,18.67
2022-12-23T13:07:42.442Z,16.63
2022-12-23T13:10:49.427Z,19.05
2022-12-23T13:13:37.394Z,17.75
2022-12-23T13:16:07.055Z,18.27
2022-12-23T13:18:49.065Z,18.42
2022-12-23T13:21:24.873Z,18.30
2022-12-23T13:24:13.854Z,16.50
2022-12-23T13:26:59.034Z,19.58
2022-12-23T13:29:40.719Z,17.77
2022-12-23T13:32:45.068Z,18.38
2022-12-23T13:35:42.523Z,18.58
2022-12-23T13:38:15.016Z,20.05
2022-12-23T13:41:06.613Z,19.77
2022-12-23T13:44:07.397Z,20.92
2022-12-23T13:46:49.538Z,20.45
2022-12-23T13:49:16.522Z,19.30
2022-12-23T13:51:57.430Z,19.27
2022-12-23T13:55:01.737Z,20.00
2022-12-23T13:57:47.424Z,18.67
2022-12-23T14:00:18.075Z,20.13
2022-12-23T14:02:52.500Z,21.17
2022-12-23T14:05:45.395Z,22.40
2022-12-23T14:08:30.164Z,21.42
2022-12-23T14:11:04.011Z,20.63
2022-12-23T14:13:55.372Z,22.52
2022-12-23T14:16:47.283Z,22.40
2022-12-23T14:19:39.536Z,22.13
2022-12-23T14:25:08.685Z,20.92
2022-12-23T14:27:50.627Z,19.17
2022-12-23T14:30:41.217Z,20.30
2022-12-23T14:33:23.472Z,20.00
2022-12-23T14:36:15.152Z,22.30
2022-12-23T14:38:42.249Z,21.30
2022-12-23T14:41:23.357Z,21.90
2022-12-23T14:46:45.996Z,22.27
2022-12-23T14:52:45.202Z,18.45
2022-12-23T14:55:32.575Z,19.60
2022-12-23T14:58:46.197Z,20.38
2022-12-23T15:01:18.494Z,19.90
2022-12-23T15:03:54.604Z,19.60
2022-12-23T15:06:35.176Z,19.77
2022-12-23T15:09:02.776Z,19.20
2022-12-23T15:11:31.840Z,20.50
2022-12-23T15:14:02.770Z,19.40
2022-12-23T15:16:40.331Z,20.20
2022-12-23T15:19:23.015Z,18.92
2022-12-23T15:22:00.273Z,21.58
2022-12-23T15:24:32.555Z,21.88
2022-12-23T15:29:53.310Z,22.40
2022-12-23T15:32:22.516Z,21.50
2022-12-23T15:34:51.231Z,23.08
2022-12-23T15:37:24.714Z,23.83
2022-12-23T15:40:00.287Z,21.33
2022-12-23T15:42:31.829Z,22.10
2022-12-23T15:44:59.045Z,22.10
2022-12-23T15:47:29.113Z,19.33
2022-12-23T15:50:00.471Z,19.92
2022-12-23T15:52:32.879Z,20.55
2022-12-23T15:55:18.547Z,20.40
2022-12-23T15:57:50.592Z,20.58
2022-12-23T16:00:23.963Z,19.88
2022-12-23T16:03:02.524Z,20.27
2022-12-23T16:05:32.255Z,21.25
2022-12-23T16:08:14.021Z,20.42
2022-12-23T16:10:41.680Z,22.40
2022-12-23T16:13:19.049Z,22.60
2022-12-23T16:15:47.431Z,22.17
2022-12-23T16:18:20.255Z,22.77
2022-12-23T16:21:01.876Z,23.70
2022-12-23T16:23:31.215Z,22.98
2022-12-23T16:26:00.184Z,25.42
2022-12-23T16:28:32.709Z,25.45
2022-12-23T16:30:59.628Z,17.90
2022-12-23T16:33:38.752Z,24.17
2022-12-23T16:36:27.201Z,24.00
2022-12-23T16:39:04.878Z,23.88
2022-12-23T16:41:31.845Z,23.27
2022-12-23T16:43:59.412Z,20.98
2022-12-23T16:46:26.958Z,22.00
2022-12-23T16:48:58.522Z,23.23
2022-12-23T16:51:26.938Z,20.90
2022-12-23T16:53:56.485Z,22.13
2022-12-23T16:56:35.384Z,22.08
2022-12-23T16:59:04.296Z,20.48
2022-12-23T17:01:35.330Z,22.20
2022-12-23T17:06:29.228Z,19.42
2022-12-23T17:08:59.068Z,20.30
2022-12-23T17:11:36.898Z,22.90
2022-12-23T17:14:10.365Z,21.00
2022-12-23T17:16:40.577Z,23.27
2022-12-23T17:19:07.575Z,21.63
2022-12-23T17:21:37.294Z,20.73
2022-12-23T17:24:16.398Z,19.48
2022-12-23T17:26:43.284Z,18.77
2022-12-23T17:29:11.950Z,18.65
2022-12-23T17:31:40.113Z,17.30
2022-12-23T17:34:19.581Z,14.90
2022-12-23T17:36:50.326Z,15.32
2022-12-23T17:39:17.885Z,16.08
2022-12-23T17:41:44.802Z,15.65
2022-12-23T17:44:15.099Z,14.68
2022-12-23T17:46:42.613Z,13.80
2022-12-23T17:49:09.549Z,13.35
2022-12-23T17:51:38.400Z,11.95
2022-12-23T17:54:06.552Z,12.02
2022-12-23T17:56:33.572Z,12.07
2022-12-23T17:59:00.532Z,10.55
2022-12-23T18:01:32.166Z,10.93
2022-12-23T18:04:00.127Z,9.18
2022-12-23T18:06:29.077Z,9.40
2022-12-23T18:08:59.467Z,10.20
2022-12-23T18:11:45.454Z,11.68
2022-12-23T18:14:24.410Z,11.45
2022-12-23T18:16:51.375Z,11.40
2022-12-23T18:19:20.261Z,11.48
2022-12-23T18:21:47.852Z,9.63
2022-12-23T18:24:14.859Z,11.13
2022-12-23T18:26:42.657Z,10.18
2022-12-23T18:29:09.544Z,11.43
2022-12-23T18:31:50.637Z,10.55
2022-12-23T18:34:19.745Z,10.02
2022-12-23T18:36:49.714Z,10.15
2022-12-23T18:39:16.923Z,10.93
2022-12-23T18:41:43.925Z,10.90
2022-12-23T18:44:20.713Z,9.25
2022-12-23T18:46:49.391Z,9.80
2022-12-23T18:49:18.505Z,8.52
2022-12-23T18:51:50.701Z,7.20
2022-12-23T18:54:17.923Z,7.95
2022-12-23T18:56:45.095Z,7.78
2022-12-23T18:59:25.708Z,7.50
2022-12-23T19:01:56.706Z,8.30
2022-12-23T19:04:23.676Z,8.88
2022-12-23T19:06:50.605Z,7.88
2022-12-23T19:09:20.309Z,7.53
2022-12-23T19:11:48.990Z,6.82
2022-12-23T19:14:15.980Z,7.50
2022-12-23T19:16:49.295Z,7.25
2022-12-23T19:19:18.645Z,6.93
2022-12-23T19:21:45.665Z,7.38
2022-12-23T19:24:12.584Z,7.43
2022-12-23T19:26:39.445Z,7.82
2022-12-23T19:29:06.294Z,7.22
2022-12-23T19:31:34.286Z,8.07
2022-12-23T19:34:01.808Z,7.25
2022-12-23T19:36:28.776Z,7.00
2022-12-23T19:38:57.049Z,5.53
2022-12-23T19:41:24.363Z,5.57
2022-12-23T19:43:51.297Z,5.40
2022-12-23T19:46:18.506Z,3.78
2022-12-23T19:48:52.387Z,3.85
2022-12-23T19:51:19.496Z,4.70
2022-12-23T19:53:50.821Z,6.38
2022-12-23T19:56:22.088Z,11.57
2022-12-23T19:58:49.780Z,21.27
2022-12-23T20:01:24.339Z,25.73
2022-12-23T20:03:52.768Z,28.17
2022-12-23T20:06:24.651Z,30.40
2022-12-23T20:08:55.031Z,29.70
2022-12-23T20:11:26.856Z,30.73
2022-12-23T20:13:55.176Z,31.90
2022-12-23T20:16:23.067Z,32.13
2022-12-23T20:18:50.118Z,35.65
2022-12-23T20:21:17.409Z,35.67
2022-12-23T20:23:44.371Z,37.03
2022-12-23T20:26:13.524Z,34.38
2022-12-23T20:28:40.786Z,35.08
2022-12-23T20:31:25.175Z,33.47
2022-12-23T20:33:53.377Z,29.95
2022-12-23T20:36:22.808Z,29.60
2022-12-23T20:38:51.258Z,28.27
2022-12-23T20:41:21.723Z,22.17
2022-12-23T20:44:02.710Z,19.15
2022-12-23T20:46:35.733Z,13.75
2022-12-23T20:49:02.655Z,11.55
2022-12-23T20:51:29.553Z,11.13
2022-12-23T20:54:01.028Z,13.57
2022-12-23T20:56:30.430Z,15.77
2022-12-23T20:58:59.282Z,16.50
2022-12-23T21:01:32.577Z,15.57
2022-12-23T21:04:01.612Z,18.58
2022-12-23T21:06:30.328Z,19.65
2022-12-23T21:08:59.817Z,18.27
2022-12-23T21:11:32.394Z,18.35
2022-12-23T21:14:06.371Z,16.88
2022-12-23T21:16:35.679Z,13.55
2022-12-23T21:19:02.882Z,13.93
2022-12-23T21:21:31.266Z,11.90
2022-12-23T21:24:00.884Z,9.63
2022-12-23T21:26:30.118Z,7.50
2022-12-23T21:28:59.539Z,8.10
2022-12-23T21:31:28.454Z,7.38
2022-12-23T21:33:55.757Z,3.42
2022-12-23T21:36:25.174Z,2.78
2022-12-23T21:38:52.742Z,1.80
2022-12-23T21:41:22.566Z,1.30
2022-12-23T21:43:49.829Z,0.98
2022-12-23T21:46:19.448Z,0.60
2022-12-23T21:48:48.287Z,0.70
2022-12-23T21:51:16.398Z,0.77
2022-12-23T21:53:44.907Z,0.70
2022-12-23T21:56:17.800Z,0.63
2022-12-23T21:58:45.047Z,0.70
2022-12-23T22:01:17.274Z,0.70
2022-12-23T22:03:45.795Z,0.63
2022-12-23T22:06:20.751Z,0.80
2022-12-23T22:08:48.188Z,0.70
2022-12-23T22:11:20.452Z,0.50
2022-12-23T22:13:47.783Z,0.57
2022-12-23T22:16:22.856Z,0.68
2022-12-23T22:18:50.723Z,0.68
2022-12-23T22:21:21.037Z,0.82
2022-12-23T22:23:48.650Z,0.60
2022-12-23T22:26:24.138Z,0.63
2022-12-23T22:28:52.648Z,0.60
2022-12-23T22:31:34.740Z,0.70
2022-12-23T22:34:02.355Z,56.67
2022-12-23T22:36:30.104Z,1.95
2022-12-23T22:39:00.068Z,0.70
2022-12-23T22:41:28.357Z,0.70
2022-12-23T22:43:56.064Z,1.10
2022-12-23T22:46:24.508Z,0.90
2022-12-23T22:48:52.479Z,0.82
2022-12-23T22:51:25.450Z,0.95
2022-12-23T22:53:52.373Z,0.80
2022-12-23T22:56:21.040Z,1.00
2022-12-23T22:58:48.500Z,0.80
2022-12-23T23:01:21.438Z,0.77
2022-12-23T23:03:51.195Z,1.00
2022-12-23T23:06:18.882Z,0.98
2022-12-23T23:08:45.831Z,0.80
2022-12-23T23:11:12.697Z,0.80
2022-12-23T23:13:39.713Z,0.70
2022-12-23T23:16:06.969Z,0.68
2022-12-23T23:18:34.265Z,0.55
2022-12-23T23:21:01.327Z,0.50
2022-12-23T23:23:28.226Z,0.63
2022-12-23T23:25:56.384Z,0.50
2022-12-23T23:28:23.316Z,0.40
2022-12-23T23:30:59.070Z,0.50
2022-12-23T23:33:37.038Z,0.60
2022-12-23T23:36:04.242Z,0.52
2022-12-23T23:38:31.438Z,0.65
2022-12-23T23:41:00.578Z,0.77
2022-12-23T23:43:31.288Z,0.75
2022-12-23T23:45:58.264Z,0.50
2022-12-23T23:48:25.371Z,0.50
2022-12-23T23:50:52.266Z,0.70
2022-12-23T23:53:19.169Z,1.10
2022-12-23T23:55:46.076Z,0.50
2022-12-23T23:58:13.144Z,0.60
